This is the latest recevied weather packets stored in our database for station/object K5GTX. If no packets are shown the sender has not sent any weather packets the latest 10 day(s).
| Time | Temp. | Humidity | Pressure | Rain* | Wind** | Luminosity | Snow |
|---|---|---|---|---|---|---|---|
| 1778021503 | 31.67° C | 99% | 1009.8 hPa | 0 mm | - | 246 W/m² | - |
| 1778021200 | 31.67° C | 99% | 1009.9 hPa | 0 mm | - | 133 W/m² | - |
| 1778020898 | 31.67° C | 99% | 1009.9 hPa | 0 mm | - | 127 W/m² | - |
| 1778020595 | 31.67° C | 99% | 1009.7 hPa | 0 mm | - | 148 W/m² | - |
| 1778020291 | 31.67° C | 99% | 1009.5 hPa | 0 mm | - | 146 W/m² | - |
| 1778019987 | 32.22° C | 99% | 1009.6 hPa | 0 mm | - | 135 W/m² | - |
| 1778019683 | 31.67° C | 99% | 1009.5 hPa | 0 mm | - | 142 W/m² | - |
| 1778019380 | 32.22° C | 99% | 1009.4 hPa | 0 mm | - | 182 W/m² | - |
| 1778019077 | 32.22° C | 99% | 1009.3 hPa | 0 mm | - | 154 W/m² | - |
| 1778018775 | 32.22° C | 99% | 1009.5 hPa | 0 mm | - | 146 W/m² | - |
| 1778018472 | 32.22° C | 99% | 1009.6 hPa | 0 mm | - | 275 W/m² | - |
| 1778018170 | 32.78° C | 99% | 1009.7 hPa | 0 mm | - | 174 W/m² | - |
| 1778017868 | 33.89° C | 99% | 1009.7 hPa | 0 mm | - | 509 W/m² | - |
| 1778017565 | 32.78° C | 99% | 1009.6 hPa | 0 mm | - | 493 W/m² | - |
| 1778017262 | 32.78° C | 99% | 1009.7 hPa | 0 mm | - | 311 W/m² | - |
| 1778016960 | 32.22° C | 99% | 1009.7 hPa | 0 mm | - | 466 W/m² | - |
| 1778016656 | 32.78° C | 99% | 1009.8 hPa | 0 mm | - | 234 W/m² | - |
| 1778016352 | 31.67° C | 99% | 1009.6 hPa | 0 mm | - | 486 W/m² | - |
| 1778016050 | 32.78° C | 99% | 1009.9 hPa | 0 mm | - | 331 W/m² | - |
| 1778015747 | 32.22° C | 99% | 1010.3 hPa | 0 mm | - | 174 W/m² | - |
| 1778015443 | 32.78° C | 99% | 1010 hPa | 0 mm | - | 418 W/m² | - |
| 1778015140 | 32.78° C | 99% | 1010 hPa | 0 mm | - | 650 W/m² | - |
| 1778014837 | 32.78° C | 99% | 1010.3 hPa | 0 mm | - | 676 W/m² | - |
| 1778014535 | 31.67° C | 99% | 1010.2 hPa | 0 mm | - | 690 W/m² | - |
| 1778014233 | 31.11° C | 99% | 1010.6 hPa | 0 mm | - | 267 W/m² | - |
* Rain latest hour (hover to see other rain measurements)
** Current wind speed in m/s (hover to see current wind gust speed)